sensor_id;sensor_type;location;lat;lon;timestamp;pressure;altitude;pressure_sealevel;temperature;humidity
60307;BME280;46155;52.364;6.580;2023-04-28T03:02:36;101017.22;;;7.36;76.08
60307;BME280;46155;52.364;6.580;2023-04-28T03:05:01;101021.50;;;7.35;75.99
60307;BME280;46155;52.364;6.580;2023-04-28T03:07:26;101015.72;;;7.39;75.89
60307;BME280;46155;52.364;6.580;2023-04-28T03:09:51;101016.66;;;7.40;76.04
60307;BME280;46155;52.364;6.580;2023-04-28T03:12:17;101003.72;;;7.41;76.59
60307;BME280;46155;52.364;6.580;2023-04-28T03:14:42;100981.53;;;7.36;76.18
60307;BME280;46155;52.364;6.580;2023-04-28T03:17:07;100996.44;;;7.49;75.63
60307;BME280;46155;52.364;6.580;2023-04-28T03:19:32;100991.44;;;7.52;75.42
60307;BME280;46155;52.364;6.580;2023-04-28T03:21:58;100994.81;;;7.39;75.39
60307;BME280;46155;52.364;6.580;2023-04-28T03:24:24;100991.09;;;7.36;75.24
60307;BME280;46155;52.364;6.580;2023-04-28T03:26:49;100984.81;;;7.34;75.65
60307;BME280;46155;52.364;6.580;2023-04-28T03:29:15;100992.44;;;7.43;76.32
60307;BME280;46155;52.364;6.580;2023-04-28T03:31:40;100997.78;;;7.44;75.60
60307;BME280;46155;52.364;6.580;2023-04-28T03:34:05;100993.81;;;7.49;75.56
60307;BME280;46155;52.364;6.580;2023-04-28T03:36:31;100988.72;;;7.51;75.57
60307;BME280;46155;52.364;6.580;2023-04-28T03:38:57;100989.88;;;7.54;75.77
60307;BME280;46155;52.364;6.580;2023-04-28T03:41:22;100973.97;;;7.51;75.28
60307;BME280;46155;52.364;6.580;2023-04-28T03:43:47;100980.31;;;7.55;74.99
60307;BME280;46155;52.364;6.580;2023-04-28T03:46:12;100964.63;;;7.43;75.26
60307;BME280;46155;52.364;6.580;2023-04-28T03:48:38;100968.50;;;7.48;75.45
60307;BME280;46155;52.364;6.580;2023-04-28T03:51:03;100967.59;;;7.48;75.25
60307;BME280;46155;52.364;6.580;2023-04-28T03:53:28;100959.41;;;7.43;74.83
60307;BME280;46155;52.364;6.580;2023-04-28T03:55:54;100950.44;;;7.39;75.67
60307;BME280;46155;52.364;6.580;2023-04-28T03:58:19;100945.75;;;7.35;75.29
60307;BME280;46155;52.364;6.580;2023-04-28T04:00:44;100946.91;;;7.39;75.89
60307;BME280;46155;52.364;6.580;2023-04-28T04:03:10;100949.41;;;7.37;75.49
60307;BME280;46155;52.364;6.580;2023-04-28T04:05:38;100949.53;;;7.39;75.54
60307;BME280;46155;52.364;6.580;2023-04-28T04:08:04;100946.81;;;7.37;75.43
60307;BME280;46155;52.364;6.580;2023-04-28T04:10:29;100941.34;;;7.34;75.73
60307;BME280;46155;52.364;6.580;2023-04-28T04:12:55;100949.75;;;7.42;75.76
60307;BME280;46155;52.364;6.580;2023-04-28T04:15:20;100949.41;;;7.49;76.12
60307;BME280;46155;52.364;6.580;2023-04-28T04:17:45;100952.81;;;7.48;74.92
60307;BME280;46155;52.364;6.580;2023-04-28T04:20:11;100949.41;;;7.49;75.97
60307;BME280;46155;52.364;6.580;2023-04-28T04:22:36;100948.28;;;7.46;74.99
60307;BME280;46155;52.364;6.580;2023-04-28T04:25:02;100941.03;;;7.53;75.38
60307;BME280;46155;52.364;6.580;2023-04-28T04:27:27;100924.78;;;7.46;75.24
60307;BME280;46155;52.364;6.580;2023-04-28T04:29:53;100937.63;;;7.54;75.40
60307;BME280;46155;52.364;6.580;2023-04-28T04:32:21;100927.41;;;7.57;75.63
60307;BME280;46155;52.364;6.580;2023-04-28T04:34:46;100927.63;;;7.61;76.25
60307;BME280;46155;52.364;6.580;2023-04-28T04:37:12;100929.00;;;7.67;76.52
60307;BME280;46155;52.364;6.580;2023-04-28T04:39:37;100921.50;;;7.72;77.17
60307;BME280;46155;52.364;6.580;2023-04-28T04:42:03;100906.25;;;7.66;76.77
60307;BME280;46155;52.364;6.580;2023-04-28T04:44:28;100901.72;;;7.64;77.48
60307;BME280;46155;52.364;6.580;2023-04-28T04:46:53;100903.44;;;7.63;76.79
60307;BME280;46155;52.364;6.580;2023-04-28T04:49:18;100891.38;;;7.53;76.79
60307;BME280;46155;52.364;6.580;2023-04-28T04:51:44;100908.09;;;7.67;77.48
60307;BME280;46155;52.364;6.580;2023-04-28T04:54:09;100913.44;;;7.69;77.82
60307;BME280;46155;52.364;6.580;2023-04-28T04:56:34;100896.94;;;7.58;77.85
60307;BME280;46155;52.364;6.580;2023-04-28T04:59:01;100905.38;;;7.66;78.56
60307;BME280;46155;52.364;6.580;2023-04-28T05:01:26;100898.28;;;7.76;77.38
60307;BME280;46155;52.364;6.580;2023-04-28T05:03:51;100902.41;;;7.73;78.00
60307;BME280;46155;52.364;6.580;2023-04-28T05:06:17;100902.19;;;7.70;77.76
60307;BME280;46155;52.364;6.580;2023-04-28T05:08:42;100900.81;;;7.75;77.76
60307;BME280;46155;52.364;6.580;2023-04-28T05:11:07;100894.69;;;7.63;78.50
60307;BME280;46155;52.364;6.580;2023-04-28T05:13:32;100898.09;;;7.62;78.37
60307;BME280;46155;52.364;6.580;2023-04-28T05:15:58;100897.16;;;7.61;78.10
60307;BME280;46155;52.364;6.580;2023-04-28T05:18:23;100888.22;;;7.57;78.31
60307;BME280;46155;52.364;6.580;2023-04-28T05:20:48;100887.84;;;7.65;78.38
60307;BME280;46155;52.364;6.580;2023-04-28T05:23:14;100892.09;;;7.63;77.98
60307;BME280;46155;52.364;6.580;2023-04-28T05:25:39;100882.84;;;7.68;78.49
60307;BME280;46155;52.364;6.580;2023-04-28T05:28:08;100877.16;;;7.73;78.79
60307;BME280;46155;52.364;6.580;2023-04-28T05:30:33;100878.22;;;7.75;78.17
60307;BME280;46155;52.364;6.580;2023-04-28T05:32:59;100867.97;;;7.79;78.11
60307;BME280;46155;52.364;6.580;2023-04-28T05:35:25;100884.78;;;7.94;78.09
60307;BME280;46155;52.364;6.580;2023-04-28T05:37:50;100875.06;;;8.05;77.14
60307;BME280;46155;52.364;6.580;2023-04-28T05:40:17;100869.84;;;8.05;76.72
60307;BME280;46155;52.364;6.580;2023-04-28T05:42:42;100865.44;;;8.04;76.72
60307;BME280;46155;52.364;6.580;2023-04-28T05:45:08;100859.38;;;8.05;76.54
60307;BME280;46155;52.364;6.580;2023-04-28T05:47:33;100862.34;;;7.98;76.31
60307;BME280;46155;52.364;6.580;2023-04-28T05:49:59;100855.91;;;7.92;77.15
60307;BME280;46155;52.364;6.580;2023-04-28T05:52:24;100863.03;;;8.07;77.57
60307;BME280;46155;52.364;6.580;2023-04-28T05:54:49;100860.06;;;8.14;77.35
60307;BME280;46155;52.364;6.580;2023-04-28T05:57:14;100868.22;;;8.19;77.70
60307;BME280;46155;52.364;6.580;2023-04-28T05:59:40;100868.31;;;8.32;77.41
60307;BME280;46155;52.364;6.580;2023-04-28T06:02:05;100866.91;;;8.37;76.99
60307;BME280;46155;52.364;6.580;2023-04-28T06:04:31;100866.56;;;8.44;76.75
60307;BME280;46155;52.364;6.580;2023-04-28T06:06:56;100857.69;;;8.42;77.33
60307;BME280;46155;52.364;6.580;2023-04-28T06:09:21;100857.44;;;8.51;77.80
60307;BME280;46155;52.364;6.580;2023-04-28T06:11:47;100856.28;;;8.59;77.58
60307;BME280;46155;52.364;6.580;2023-04-28T06:14:12;100839.44;;;8.56;77.65
60307;BME280;46155;52.364;6.580;2023-04-28T06:16:38;100853.97;;;8.64;77.10
60307;BME280;46155;52.364;6.580;2023-04-28T06:19:03;100856.78;;;8.67;77.83
60307;BME280;46155;52.364;6.580;2023-04-28T06:21:28;100847.63;;;8.60;77.66
60307;BME280;46155;52.364;6.580;2023-04-28T06:23:53;100853.97;;;8.64;77.65
60307;BME280;46155;52.364;6.580;2023-04-28T06:26:19;100855.31;;;8.71;77.90
60307;BME280;46155;52.364;6.580;2023-04-28T06:28:44;100856.09;;;8.70;78.52
60307;BME280;46155;52.364;6.580;2023-04-28T06:31:09;100854.75;;;8.63;78.27
60307;BME280;46155;52.364;6.580;2023-04-28T06:33:35;100864.53;;;8.66;79.36
60307;BME280;46155;52.364;6.580;2023-04-28T06:36:00;100860.56;;;8.71;79.02
60307;BME280;46155;52.364;6.580;2023-04-28T06:38:26;100860.16;;;8.53;78.96
60307;BME280;46155;52.364;6.580;2023-04-28T06:40:51;100874.59;;;8.59;79.58
60307;BME280;46155;52.364;6.580;2023-04-28T06:43:16;100861.78;;;8.51;79.52
60307;BME280;46155;52.364;6.580;2023-04-28T06:45:42;100870.16;;;8.58;79.88
60307;BME280;46155;52.364;6.580;2023-04-28T06:48:07;100868.78;;;8.64;79.95
60307;BME280;46155;52.364;6.580;2023-04-28T06:50:32;100869.19;;;8.70;80.64
60307;BME280;46155;52.364;6.580;2023-04-28T06:52:58;100868.72;;;8.75;81.10
60307;BME280;46155;52.364;6.580;2023-04-28T06:55:23;100866.41;;;8.80;81.18
60307;BME280;46155;52.364;6.580;2023-04-28T06:57:49;100860.78;;;8.87;80.61
60307;BME280;46155;52.364;6.580;2023-04-28T07:00:14;100856.16;;;8.83;80.55
60307;BME280;46155;52.364;6.580;2023-04-28T07:02:40;100849.59;;;8.76;81.25
60307;BME280;46155;52.364;6.580;2023-04-28T07:05:05;100855.34;;;8.84;81.61
60307;BME280;46155;52.364;6.580;2023-04-28T07:07:31;100859.00;;;8.86;81.69
60307;BME280;46155;52.364;6.580;2023-04-28T07:09:56;100861.81;;;8.89;82.06
60307;BME280;46155;52.364;6.580;2023-04-28T07:12:23;100864.63;;;8.92;81.97
60307;BME280;46155;52.364;6.580;2023-04-28T07:14:48;100865.03;;;8.99;82.45
60307;BME280;46155;52.364;6.580;2023-04-28T07:17:15;100866.38;;;9.05;82.73
60307;BME280;46155;52.364;6.580;2023-04-28T07:19:40;100861.22;;;9.07;83.85
60307;BME280;46155;52.364;6.580;2023-04-28T07:22:06;100859.84;;;9.12;86.29
60307;BME280;46155;52.364;6.580;2023-04-28T07:24:31;100848.03;;;9.05;88.40
60307;BME280;46155;52.364;6.580;2023-04-28T07:26:56;100843.50;;;9.03;91.40
60307;BME280;46155;52.364;6.580;2023-04-28T07:29:22;100821.94;;;8.93;92.65
60307;BME280;46155;52.364;6.580;2023-04-28T07:31:48;100806.44;;;8.96;93.45
60307;BME280;46155;52.364;6.580;2023-04-28T07:34:13;100808.97;;;8.95;95.28
60307;BME280;46155;52.364;6.580;2023-04-28T07:36:39;100817.50;;;8.79;96.29
60307;BME280;46155;52.364;6.580;2023-04-28T07:39:04;100818.50;;;8.81;98.16
60307;BME280;46155;52.364;6.580;2023-04-28T07:41:36;100815.19;;;8.84;100.00
60307;BME280;46155;52.364;6.580;2023-04-28T07:44:03;100818.78;;;8.86;100.00
60307;BME280;46155;52.364;6.580;2023-04-28T07:46:29;100805.41;;;8.81;100.00
60307;BME280;46155;52.364;6.580;2023-04-28T07:48:55;100812.84;;;8.88;100.00
60307;BME280;46155;52.364;6.580;2023-04-28T07:51:20;100819.63;;;8.98;100.00
60307;BME280;46155;52.364;6.580;2023-04-28T07:53:46;100810.69;;;9.08;100.00
60307;BME280;46155;52.364;6.580;2023-04-28T07:56:11;100811.31;;;9.17;100.00
60307;BME280;46155;52.364;6.580;2023-04-28T07:58:37;100807.97;;;9.33;100.00
60307;BME280;46155;52.364;6.580;2023-04-28T08:01:02;100811.09;;;9.54;100.00
60307;BME280;46155;52.364;6.580;2023-04-28T08:03:27;100819.13;;;9.84;100.00
60307;BME280;46155;52.364;6.580;2023-04-28T08:05:52;100819.69;;;10.07;100.00
60307;BME280;46155;52.364;6.580;2023-04-28T08:08:18;100816.13;;;10.06;100.00
60307;BME280;46155;52.364;6.580;2023-04-28T08:10:44;100814.00;;;10.14;100.00
60307;BME280;46155;52.364;6.580;2023-04-28T08:13:09;100812.13;;;9.98;100.00
60307;BME280;46155;52.364;6.580;2023-04-28T08:15:35;100807.44;;;10.07;100.00
60307;BME280;46155;52.364;6.580;2023-04-28T08:18:00;100796.81;;;10.19;100.00
60307;BME280;46155;52.364;6.580;2023-04-28T08:20:26;100794.59;;;10.25;100.00
60307;BME280;46155;52.364;6.580;2023-04-28T08:22:51;100802.34;;;10.37;100.00
60307;BME280;46155;52.364;6.580;2023-04-28T08:25:16;100808.69;;;10.41;100.00
60307;BME280;46155;52.364;6.580;2023-04-28T08:27:42;100805.03;;;10.39;100.00
60307;BME280;46155;52.364;6.580;2023-04-28T08:30:08;100810.47;;;10.42;100.00
60307;BME280;46155;52.364;6.580;2023-04-28T08:32:34;100816.31;;;10.51;100.00
60307;BME280;46155;52.364;6.580;2023-04-28T08:34:59;100816.13;;;10.63;100.00
60307;BME280;46155;52.364;6.580;2023-04-28T08:37:28;100815.25;;;10.77;100.00
60307;BME280;46155;52.364;6.580;2023-04-28T08:39:53;100823.59;;;10.85;100.00
60307;BME280;46155;52.364;6.580;2023-04-28T08:42:28;100829.22;;;10.91;100.00
60307;BME280;46155;52.364;6.580;2023-04-28T08:44:55;100825.03;;;10.80;100.00
60307;BME280;46155;52.364;6.580;2023-04-28T08:47:30;100823.56;;;10.70;100.00
60307;BME280;46155;52.364;6.580;2023-04-28T08:50:01;100818.41;;;10.72;100.00
60307;BME280;46155;52.364;6.580;2023-04-28T08:52:28;100820.75;;;10.67;100.00
60307;BME280;46155;52.364;6.580;2023-04-28T08:54:55;100811.19;;;10.67;100.00
60307;BME280;46155;52.364;6.580;2023-04-28T08:57:22;100810.25;;;10.67;100.00
60307;BME280;46155;52.364;6.580;2023-04-28T08:59:47;100814.00;;;10.71;100.00
60307;BME280;46155;52.364;6.580;2023-04-28T09:02:14;100809.81;;;10.74;100.00
60307;BME280;46155;52.364;6.580;2023-04-28T09:04:39;100809.09;;;10.77;100.00
60307;BME280;46155;52.364;6.580;2023-04-28T09:07:10;100806.38;;;10.75;100.00
60307;BME280;46155;52.364;6.580;2023-04-28T09:09:35;100810.38;;;10.83;100.00
60307;BME280;46155;52.364;6.580;2023-04-28T09:12:02;100802.59;;;10.85;100.00
60307;BME280;46155;52.364;6.580;2023-04-28T09:17:11;100805.75;;;10.94;100.00
60307;BME280;46155;52.364;6.580;2023-04-28T09:19:37;100809.66;;;10.86;100.00
60307;BME280;46155;52.364;6.580;2023-04-28T09:22:04;100811.13;;;10.96;100.00
60307;BME280;46155;52.364;6.580;2023-04-28T09:24:36;100798.69;;;10.93;100.00
60307;BME280;46155;52.364;6.580;2023-04-28T09:27:05;100803.50;;;11.00;100.00
60307;BME280;46155;52.364;6.580;2023-04-28T09:29:36;100783.38;;;11.01;100.00
60307;BME280;46155;52.364;6.580;2023-04-28T09:32:15;100800.75;;;11.14;100.00
60307;BME280;46155;52.364;6.580;2023-04-28T09:34:46;100793.59;;;11.11;100.00
60307;BME280;46155;52.364;6.580;2023-04-28T09:37:18;100788.25;;;11.10;100.00
60307;BME280;46155;52.364;6.580;2023-04-28T09:39:48;100783.94;;;11.10;100.00
60307;BME280;46155;52.364;6.580;2023-04-28T09:42:42;100786.44;;;11.24;100.00
60307;BME280;46155;52.364;6.580;2023-04-28T09:45:09;100783.63;;;11.35;100.00
60307;BME280;46155;52.364;6.580;2023-04-28T09:47:36;100781.84;;;11.51;100.00
60307;BME280;46155;52.364;6.580;2023-04-28T09:50:04;100774.31;;;11.57;100.00
60307;BME280;46155;52.364;6.580;2023-04-28T09:52:32;100774.09;;;11.69;100.00
60307;BME280;46155;52.364;6.580;2023-04-28T09:55:01;100771.25;;;11.81;100.00
60307;BME280;46155;52.364;6.580;2023-04-28T09:57:29;100765.22;;;11.98;100.00
60307;BME280;46155;52.364;6.580;2023-04-28T09:59:56;100769.16;;;12.23;100.00
60307;BME280;46155;52.364;6.580;2023-04-28T10:02:22;100756.94;;;12.23;100.00
60307;BME280;46155;52.364;6.580;2023-04-28T10:04:48;100757.47;;;12.34;100.00
60307;BME280;46155;52.364;6.580;2023-04-28T10:07:16;100759.78;;;12.28;100.00
60307;BME280;46155;52.364;6.580;2023-04-28T10:09:47;100753.88;;;12.32;100.00
60307;BME280;46155;52.364;6.580;2023-04-28T10:12:19;100745.97;;;12.32;100.00
60307;BME280;46155;52.364;6.580;2023-04-28T10:14:45;100738.97;;;12.33;100.00
60307;BME280;46155;52.364;6.580;2023-04-28T10:17:12;100741.44;;;12.30;100.00
60307;BME280;46155;52.364;6.580;2023-04-28T10:19:42;100737.25;;;12.33;100.00
60307;BME280;46155;52.364;6.580;2023-04-28T10:27:38;100704.38;;;12.43;100.00
60307;BME280;46155;52.364;6.580;2023-04-28T10:30:18;100720.94;;;12.75;100.00
60307;BME280;46155;52.364;6.580;2023-04-28T10:32:44;100717.34;;;12.91;100.00
60307;BME280;46155;52.364;6.580;2023-04-28T10:38:12;100729.88;;;13.13;100.00
60307;BME280;46155;52.364;6.580;2023-04-28T10:40:42;100728.44;;;13.20;100.00
60307;BME280;46155;52.364;6.580;2023-04-28T10:48:22;100721.94;;;12.95;100.00
60307;BME280;46155;52.364;6.580;2023-04-28T10:58:46;100718.72;;;13.01;100.00
60307;BME280;46155;52.364;6.580;2023-04-28T11:04:04;100731.81;;;12.99;100.00
60307;BME280;46155;52.364;6.580;2023-04-28T11:06:46;100733.16;;;12.91;100.00
60307;BME280;46155;52.364;6.580;2023-04-28T11:17:00;100722.16;;;12.82;100.00
60307;BME280;46155;52.364;6.580;2023-04-28T11:19:36;100723.06;;;12.82;100.00
60307;BME280;46155;52.364;6.580;2023-04-28T11:22:12;100720.44;;;12.82;100.00
60307;BME280;46155;52.364;6.580;2023-04-28T11:24:37;100717.19;;;12.88;100.00
60307;BME280;46155;52.364;6.580;2023-04-28T11:27:03;100710.28;;;12.90;100.00
60307;BME280;46155;52.364;6.580;2023-04-28T11:29:39;100709.50;;;12.92;100.00
60307;BME280;46155;52.364;6.580;2023-04-28T11:32:07;100705.53;;;13.01;100.00
60307;BME280;46155;52.364;6.580;2023-04-28T11:34:33;100708.38;;;13.05;100.00
60307;BME280;46155;52.364;6.580;2023-04-28T11:36:59;100704.25;;;13.11;100.00
60307;BME280;46155;52.364;6.580;2023-04-28T11:39:30;100704.25;;;13.11;100.00
60307;BME280;46155;52.364;6.580;2023-04-28T11:42:00;100707.50;;;13.23;100.00
60307;BME280;46155;52.364;6.580;2023-04-28T11:44:28;100704.31;;;13.30;100.00
60307;BME280;46155;52.364;6.580;2023-04-28T11:46:58;100702.94;;;13.37;100.00
60307;BME280;46155;52.364;6.580;2023-04-28T11:49:45;100703.97;;;13.40;100.00
60307;BME280;46155;52.364;6.580;2023-04-28T11:52:12;100703.34;;;13.46;100.00
60307;BME280;46155;52.364;6.580;2023-04-28T11:54:38;100706.06;;;13.48;100.00
60307;BME280;46155;52.364;6.580;2023-04-28T11:57:04;100705.97;;;13.46;100.00
60307;BME280;46155;52.364;6.580;2023-04-28T11:59:34;100709.97;;;13.38;100.00
60307;BME280;46155;52.364;6.580;2023-04-28T12:02:05;100706.97;;;13.30;100.00
60307;BME280;46155;52.364;6.580;2023-04-28T12:04:35;100718.19;;;13.26;100.00
60307;BME280;46155;52.364;6.580;2023-04-28T12:07:15;100720.28;;;13.15;100.00
60307;BME280;46155;52.364;6.580;2023-04-28T12:09:45;100722.69;;;13.11;100.00
60307;BME280;46155;52.364;6.580;2023-04-28T12:12:28;100714.50;;;13.04;100.00
60307;BME280;46155;52.364;6.580;2023-04-28T12:14:55;100701.84;;;12.97;100.00
60307;BME280;46155;52.364;6.580;2023-04-28T12:17:25;100710.88;;;13.02;100.00
60307;BME280;46155;52.364;6.580;2023-04-28T12:19:52;100712.00;;;13.07;100.00
60307;BME280;46155;52.364;6.580;2023-04-28T12:22:18;100715.94;;;13.16;100.00
60307;BME280;46155;52.364;6.580;2023-04-28T12:24:43;100716.00;;;13.17;100.00
60307;BME280;46155;52.364;6.580;2023-04-28T12:27:16;100710.59;;;13.14;100.00
60307;BME280;46155;52.364;6.580;2023-04-28T12:29:43;100711.34;;;13.12;100.00
60307;BME280;46155;52.364;6.580;2023-04-28T12:32:10;100712.16;;;13.11;100.00
60307;BME280;46155;52.364;6.580;2023-04-28T12:34:37;100697.03;;;13.06;100.00
60307;BME280;46155;52.364;6.580;2023-04-28T12:37:04;100711.19;;;13.08;100.00
60307;BME280;46155;52.364;6.580;2023-04-28T12:39:30;100712.00;;;13.07;100.00
60307;BME280;46155;52.364;6.580;2023-04-28T12:41:55;100703.81;;;13.01;100.00
60307;BME280;46155;52.364;6.580;2023-04-28T12:44:23;100711.88;;;13.04;100.00
60307;BME280;46155;52.364;6.580;2023-04-28T12:46:48;100714.34;;;13.01;100.00
60307;BME280;46155;52.364;6.580;2023-04-28T12:49:15;100705.53;;;13.01;100.00
60307;BME280;46155;52.364;6.580;2023-04-28T12:51:40;100702.97;;;13.02;100.00
60307;BME280;46155;52.364;6.580;2023-04-28T12:54:05;100699.50;;;13.03;100.00
60307;BME280;46155;52.364;6.580;2023-04-28T12:56:31;100697.03;;;13.06;100.00
60307;BME280;46155;52.364;6.580;2023-04-28T12:58:56;100701.69;;;13.12;100.00
60307;BME280;46155;52.364;6.580;2023-04-28T13:01:22;100696.88;;;13.21;100.00
60307;BME280;46155;52.364;6.580;2023-04-28T13:03:47;100691.13;;;13.30;100.00
60307;BME280;46155;52.364;6.580;2023-04-28T13:06:14;100689.63;;;13.35;100.00
60307;BME280;46155;52.364;6.580;2023-04-28T13:08:40;100695.09;;;13.38;100.00
60307;BME280;46155;52.364;6.580;2023-04-28T13:11:05;100690.78;;;13.40;100.00
60307;BME280;46155;52.364;6.580;2023-04-28T13:13:31;100689.81;;;13.38;100.00
60307;BME280;46155;52.364;6.580;2023-04-28T13:15:56;100687.38;;;13.43;100.00
60307;BME280;46155;52.364;6.580;2023-04-28T13:18:22;100680.88;;;13.54;100.00
60307;BME280;46155;52.364;6.580;2023-04-28T13:20:48;100670.59;;;13.60;100.00
60307;BME280;46155;52.364;6.580;2023-04-28T13:23:13;100660.81;;;13.58;100.00
60307;BME280;46155;52.364;6.580;2023-04-28T13:25:39;100667.22;;;13.63;100.00
60307;BME280;46155;52.364;6.580;2023-04-28T13:28:04;100653.63;;;13.54;100.00
60307;BME280;46155;52.364;6.580;2023-04-28T13:30:30;100667.75;;;13.56;100.00
60307;BME280;46155;52.364;6.580;2023-04-28T13:32:55;100649.84;;;13.49;100.00
60307;BME280;46155;52.364;6.580;2023-04-28T13:35:21;100642.75;;;13.48;100.00
60307;BME280;46155;52.364;6.580;2023-04-28T13:37:47;100657.06;;;13.53;100.00
60307;BME280;46155;52.364;6.580;2023-04-28T13:40:12;100648.16;;;13.51;100.00
60307;BME280;46155;52.364;6.580;2023-04-28T13:42:37;100653.75;;;13.57;100.00
60307;BME280;46155;52.364;6.580;2023-04-28T13:45:03;100649.03;;;13.50;100.00
60307;BME280;46155;52.364;6.580;2023-04-28T13:47:29;100656.78;;;13.47;100.00
60307;BME280;46155;52.364;6.580;2023-04-28T13:49:56;100655.94;;;13.48;100.00
60307;BME280;46155;52.364;6.580;2023-04-28T13:52:22;100647.22;;;13.49;100.00
60307;BME280;46155;52.364;6.580;2023-04-28T13:54:47;100644.50;;;13.47;100.00
60307;BME280;46155;52.364;6.580;2023-04-28T13:57:13;100644.44;;;13.46;100.00
60307;BME280;46155;52.364;6.580;2023-04-28T13:59:38;100645.41;;;13.48;100.00
60307;BME280;46155;52.364;6.580;2023-04-28T14:02:03;100639.16;;;13.46;100.00
60307;BME280;46155;52.364;6.580;2023-04-28T14:04:32;100649.84;;;13.49;100.00
60307;BME280;46155;52.364;6.580;2023-04-28T14:06:57;100642.75;;;13.48;100.00
60307;BME280;46155;52.364;6.580;2023-04-28T14:09:22;100639.78;;;13.40;100.00
60307;BME280;46155;52.364;6.580;2023-04-28T14:11:47;100648.59;;;13.40;100.00
60307;BME280;46155;52.364;6.580;2023-04-28T14:14:13;100639.53;;;13.35;100.00
60307;BME280;46155;52.364;6.580;2023-04-28T14:16:38;100645.06;;;13.40;100.00
60307;BME280;46155;52.364;6.580;2023-04-28T14:19:03;100652.72;;;13.35;100.00
60307;BME280;46155;52.364;6.580;2023-04-28T14:21:29;100637.72;;;13.34;100.00
60307;BME280;46155;52.364;6.580;2023-04-28T14:23:55;100643.44;;;13.43;100.00
60307;BME280;46155;52.364;6.580;2023-04-28T14:26:20;100645.47;;;13.49;100.00
60307;BME280;46155;52.364;6.580;2023-04-28T14:28:47;100623.97;;;13.40;100.00
60307;BME280;46155;52.364;6.580;2023-04-28T14:31:13;100637.34;;;13.45;100.00
60307;BME280;46155;52.364;6.580;2023-04-28T14:33:38;100635.78;;;13.48;100.00
60307;BME280;46155;52.364;6.580;2023-04-28T14:36:03;100641.53;;;13.59;100.00
60307;BME280;46155;52.364;6.580;2023-04-28T14:38:29;100640.75;;;13.62;100.00
60307;BME280;46155;52.364;6.580;2023-04-28T14:40:54;100628.34;;;13.59;100.00
60307;BME280;46155;52.364;6.580;2023-04-28T14:43:20;100621.25;;;13.58;100.00
60307;BME280;46155;52.364;6.580;2023-04-28T14:45:45;100635.81;;;13.69;100.00
60307;BME280;46155;52.364;6.580;2023-04-28T14:48:10;100644.03;;;13.75;100.00
60307;BME280;46155;52.364;6.580;2023-04-28T14:50:37;100635.13;;;13.73;100.00
60307;BME280;46155;52.364;6.580;2023-04-28T14:53:03;100638.75;;;13.75;100.00
60307;BME280;46155;52.364;6.580;2023-04-28T14:55:31;100631.81;;;13.77;100.00
60307;BME280;46155;52.364;6.580;2023-04-28T14:57:57;100643.84;;;13.71;100.00
60307;BME280;46155;52.364;6.580;2023-04-28T15:00:22;100647.09;;;13.65;100.00
60307;BME280;46155;52.364;6.580;2023-04-28T15:02:48;100652.06;;;13.59;100.00
60307;BME280;46155;52.364;6.580;2023-04-28T15:05:13;100651.94;;;13.56;100.00
60307;BME280;46155;52.364;6.580;2023-04-28T15:07:39;100644.56;;;13.49;100.00
60307;BME280;46155;52.364;6.580;2023-04-28T15:10:04;100645.41;;;13.48;100.00
60307;BME280;46155;52.364;6.580;2023-04-28T15:12:30;100646.38;;;13.50;100.00
60307;BME280;46155;52.364;6.580;2023-04-28T15:17:21;100645.59;;;13.52;100.00
60307;BME280;46155;52.364;6.580;2023-04-28T15:19:47;100647.63;;;13.58;100.00
60307;BME280;46155;52.364;6.580;2023-04-28T15:22:13;100652.06;;;13.59;100.00
60307;BME280;46155;52.364;6.580;2023-04-28T15:24:38;100655.53;;;13.58;100.00
60307;BME280;46155;52.364;6.580;2023-04-28T15:27:04;100656.25;;;13.54;100.00
60307;BME280;46155;52.364;6.580;2023-04-28T15:29:30;100656.09;;;13.51;100.00
60307;BME280;46155;52.364;6.580;2023-04-28T15:31:55;100667.50;;;13.50;100.00
60307;BME280;46155;52.364;6.580;2023-04-28T15:34:21;100664.84;;;13.50;100.00
60307;BME280;46155;52.364;6.580;2023-04-28T15:36:46;100658.44;;;13.45;100.00
60307;BME280;46155;52.364;6.580;2023-04-28T15:39:12;100663.59;;;13.41;100.00
60307;BME280;46155;52.364;6.580;2023-04-28T15:41:37;100669.69;;;13.40;100.00
60307;BME280;46155;52.364;6.580;2023-04-28T15:44:03;100670.50;;;13.39;100.00
60307;BME280;46155;52.364;6.580;2023-04-28T15:46:29;100675.78;;;13.39;100.00
60307;BME280;46155;52.364;6.580;2023-04-28T15:48:54;100670.34;;;13.36;100.00
60307;BME280;46155;52.364;6.580;2023-04-28T15:51:20;100662.13;;;13.30;100.00
60307;BME280;46155;52.364;6.580;2023-04-28T15:53:46;100675.47;;;13.33;100.00
60307;BME280;46155;52.364;6.580;2023-04-28T15:56:11;100677.13;;;13.31;100.00
60307;BME280;46155;52.364;6.580;2023-04-28T15:58:36;100676.34;;;13.34;100.00
60307;BME280;46155;52.364;6.580;2023-04-28T16:01:02;100679.00;;;13.34;100.00
60307;BME280;46155;52.364;6.580;2023-04-28T16:03:27;100682.31;;;13.30;100.00
60307;BME280;46155;52.364;6.580;2023-04-28T16:05:53;100685.88;;;13.30;100.00
60307;BME280;46155;52.364;6.580;2023-04-28T16:08:19;100683.16;;;13.29;100.00
60307;BME280;46155;52.364;6.580;2023-04-28T16:10:48;100678.50;;;13.23;100.00
60307;BME280;46155;52.364;6.580;2023-04-28T16:13:14;100687.22;;;13.22;100.00
60307;BME280;46155;52.364;6.580;2023-04-28T16:15:39;100695.81;;;13.18;100.00
60307;BME280;46155;52.364;6.580;2023-04-28T16:18:06;100691.59;;;13.21;100.00
60307;BME280;46155;52.364;6.580;2023-04-28T16:20:31;100690.41;;;13.15;100.00
60307;BME280;46155;52.364;6.580;2023-04-28T16:22:57;100702.75;;;13.16;100.00